sensor_id;sensor_type;location;lat;lon;timestamp;pressure;altitude;pressure_sealevel;temperature;humidity
61436;BME280;47304;47.456;19.160;2022-11-20T00:01:20;99952.94;;;1.51;72.39
61436;BME280;47304;47.456;19.160;2022-11-20T00:03:48;99952.98;;;1.53;72.36
61436;BME280;47304;47.456;19.160;2022-11-20T00:06:18;99950.62;;;1.54;72.42
61436;BME280;47304;47.456;19.160;2022-11-20T00:08:47;99951.86;;;1.56;72.39
61436;BME280;47304;47.456;19.160;2022-11-20T00:11:21;99948.29;;;1.52;72.09
61436;BME280;47304;47.456;19.160;2022-11-20T00:13:51;99944.48;;;1.51;72.30
61436;BME280;47304;47.456;19.160;2022-11-20T00:16:22;99949.61;;;1.50;72.14
61436;BME280;47304;47.456;19.160;2022-11-20T00:18:50;99957.68;;;1.48;72.18
61436;BME280;47304;47.456;19.160;2022-11-20T00:21:28;99960.43;;;1.48;72.18
61436;BME280;47304;47.456;19.160;2022-11-20T00:23:57;99969.60;;;1.48;72.24
61436;BME280;47304;47.456;19.160;2022-11-20T00:26:44;99984.15;;;1.50;72.28
61436;BME280;47304;47.456;19.160;2022-11-20T00:29:13;99987.14;;;1.52;72.37
61436;BME280;47304;47.456;19.160;2022-11-20T00:31:41;99980.98;;;1.54;72.41
61436;BME280;47304;47.456;19.160;2022-11-20T00:34:09;99971.73;;;1.56;72.29
61436;BME280;47304;47.456;19.160;2022-11-20T00:36:36;99971.78;;;1.58;72.27
61436;BME280;47304;47.456;19.160;2022-11-20T00:39:04;99983.58;;;1.59;72.29
61436;BME280;47304;47.456;19.160;2022-11-20T00:41:32;99985.66;;;1.60;72.30
61436;BME280;47304;47.456;19.160;2022-11-20T00:44:00;99983.41;;;1.60;72.38
61436;BME280;47304;47.456;19.160;2022-11-20T00:46:28;99986.50;;;1.60;72.32
61436;BME280;47304;47.456;19.160;2022-11-20T00:48:58;99977.25;;;1.56;72.31
61436;BME280;47304;47.456;19.160;2022-11-20T00:51:27;99969.27;;;1.54;72.39
61436;BME280;47304;47.456;19.160;2022-11-20T00:53:56;99964.55;;;1.53;72.59
61436;BME280;47304;47.456;19.160;2022-11-20T00:56:24;99960.08;;;1.53;73.03
61436;BME280;47304;47.456;19.160;2022-11-20T00:58:52;99955.09;;;1.54;72.83
61436;BME280;47304;47.456;19.160;2022-11-20T01:01:22;99958.52;;;1.53;72.86
61436;BME280;47304;47.456;19.160;2022-11-20T01:03:51;99958.86;;;1.53;72.95
61436;BME280;47304;47.456;19.160;2022-11-20T01:06:40;99959.55;;;1.52;73.12
61436;BME280;47304;47.456;19.160;2022-11-20T01:09:13;99958.14;;;1.52;73.06
61436;BME280;47304;47.456;19.160;2022-11-20T01:11:43;99955.77;;;1.47;73.03
61436;BME280;47304;47.456;19.160;2022-11-20T01:14:13;99960.03;;;1.40;73.18
61436;BME280;47304;47.456;19.160;2022-11-20T01:16:49;99960.41;;;1.35;73.36
61436;BME280;47304;47.456;19.160;2022-11-20T01:19:20;99957.77;;;1.34;73.53
61436;BME280;47304;47.456;19.160;2022-11-20T01:21:51;99955.43;;;1.31;73.41
61436;BME280;47304;47.456;19.160;2022-11-20T01:24:20;99955.66;;;1.27;73.47
61436;BME280;47304;47.456;19.160;2022-11-20T01:26:50;99955.83;;;1.21;73.43
61436;BME280;47304;47.456;19.160;2022-11-20T01:29:21;99960.13;;;1.15;73.76
61436;BME280;47304;47.456;19.160;2022-11-20T01:31:49;99960.91;;;1.12;73.96
61436;BME280;47304;47.456;19.160;2022-11-20T01:34:19;99964.89;;;1.07;74.15
61436;BME280;47304;47.456;19.160;2022-11-20T01:36:47;99964.22;;;1.02;74.65
61436;BME280;47304;47.456;19.160;2022-11-20T01:39:20;99963.02;;;0.97;74.86
61436;BME280;47304;47.456;19.160;2022-11-20T01:41:50;99958.33;;;0.96;75.31
61436;BME280;47304;47.456;19.160;2022-11-20T01:44:22;99961.20;;;1.00;75.58
61436;BME280;47304;47.456;19.160;2022-11-20T01:46:59;99957.66;;;1.02;75.66
61436;BME280;47304;47.456;19.160;2022-11-20T01:49:36;99952.42;;;1.06;75.74
61436;BME280;47304;47.456;19.160;2022-11-20T01:52:07;99950.03;;;1.06;75.85
61436;BME280;47304;47.456;19.160;2022-11-20T01:54:44;99953.90;;;1.09;75.97
61436;BME280;47304;47.456;19.160;2022-11-20T01:57:15;99944.02;;;1.13;76.03
61436;BME280;47304;47.456;19.160;2022-11-20T01:59:58;99939.10;;;1.16;76.12
61436;BME280;47304;47.456;19.160;2022-11-20T02:02:27;99939.41;;;1.20;76.02
61436;BME280;47304;47.456;19.160;2022-11-20T02:05:01;99939.31;;;1.22;76.13
61436;BME280;47304;47.456;19.160;2022-11-20T02:07:30;99940.81;;;1.26;76.26
61436;BME280;47304;47.456;19.160;2022-11-20T02:09:58;99946.19;;;1.28;76.31
61436;BME280;47304;47.456;19.160;2022-11-20T02:12:26;99950.38;;;1.29;76.23
61436;BME280;47304;47.456;19.160;2022-11-20T02:14:53;99958.66;;;1.29;76.25
61436;BME280;47304;47.456;19.160;2022-11-20T02:17:21;99961.09;;;1.29;76.36
61436;BME280;47304;47.456;19.160;2022-11-20T02:19:49;99956.59;;;1.29;76.44
61436;BME280;47304;47.456;19.160;2022-11-20T02:22:26;99958.05;;;1.31;76.43
61436;BME280;47304;47.456;19.160;2022-11-20T02:24:56;99956.36;;;1.33;76.48
61436;BME280;47304;47.456;19.160;2022-11-20T02:27:27;99956.40;;;1.34;76.52
61436;BME280;47304;47.456;19.160;2022-11-20T02:30:01;99955.75;;;1.35;76.56
61436;BME280;47304;47.456;19.160;2022-11-20T02:32:33;99952.15;;;1.36;76.64
61436;BME280;47304;47.456;19.160;2022-11-20T02:37:49;99934.38;;;1.31;76.71
61436;BME280;47304;47.456;19.160;2022-11-20T02:40:18;99931.48;;;1.32;76.85
61436;BME280;47304;47.456;19.160;2022-11-20T02:42:46;99927.55;;;1.34;76.72
61436;BME280;47304;47.456;19.160;2022-11-20T02:45:14;99930.50;;;1.34;77.00
61436;BME280;47304;47.456;19.160;2022-11-20T02:47:41;99929.67;;;1.35;77.00
61436;BME280;47304;47.456;19.160;2022-11-20T02:50:09;99929.23;;;1.37;76.89
61436;BME280;47304;47.456;19.160;2022-11-20T02:52:37;99923.95;;;1.40;76.71
61436;BME280;47304;47.456;19.160;2022-11-20T02:55:05;99924.46;;;1.39;76.68
61436;BME280;47304;47.456;19.160;2022-11-20T02:57:33;99924.80;;;1.39;76.73
61436;BME280;47304;47.456;19.160;2022-11-20T03:00:02;99918.13;;;1.41;76.86
61436;BME280;47304;47.456;19.160;2022-11-20T03:02:33;99907.61;;;1.42;76.73
61436;BME280;47304;47.456;19.160;2022-11-20T03:05:01;99902.79;;;1.43;76.74
61436;BME280;47304;47.456;19.160;2022-11-20T03:07:29;99902.30;;;1.43;76.79
61436;BME280;47304;47.456;19.160;2022-11-20T03:09:56;99896.98;;;1.44;76.74
61436;BME280;47304;47.456;19.160;2022-11-20T03:12:24;99898.52;;;1.43;76.74
61436;BME280;47304;47.456;19.160;2022-11-20T03:14:52;99898.34;;;1.44;76.84
61436;BME280;47304;47.456;19.160;2022-11-20T03:17:20;99904.40;;;1.45;76.87
61436;BME280;47304;47.456;19.160;2022-11-20T03:19:47;99907.71;;;1.45;76.81
61436;BME280;47304;47.456;19.160;2022-11-20T03:22:15;99914.48;;;1.47;76.96
61436;BME280;47304;47.456;19.160;2022-11-20T03:24:42;99921.14;;;1.50;77.03
61436;BME280;47304;47.456;19.160;2022-11-20T03:27:10;99923.44;;;1.52;76.89
61436;BME280;47304;47.456;19.160;2022-11-20T03:29:37;99927.60;;;1.53;76.70
61436;BME280;47304;47.456;19.160;2022-11-20T03:32:05;99930.45;;;1.56;76.80
61436;BME280;47304;47.456;19.160;2022-11-20T03:34:33;99933.98;;;1.59;76.61
61436;BME280;47304;47.456;19.160;2022-11-20T03:37:01;99929.23;;;1.61;76.61
61436;BME280;47304;47.456;19.160;2022-11-20T03:39:28;99924.20;;;1.61;76.64
61436;BME280;47304;47.456;19.160;2022-11-20T03:41:56;99925.13;;;1.63;76.73
61436;BME280;47304;47.456;19.160;2022-11-20T03:44:23;99912.09;;;1.66;76.74
61436;BME280;47304;47.456;19.160;2022-11-20T03:46:51;99904.09;;;1.69;76.68
61436;BME280;47304;47.456;19.160;2022-11-20T03:49:19;99896.31;;;1.69;76.65
61436;BME280;47304;47.456;19.160;2022-11-20T03:51:47;99897.33;;;1.69;76.36
61436;BME280;47304;47.456;19.160;2022-11-20T03:54:15;99899.05;;;1.69;76.23
61436;BME280;47304;47.456;19.160;2022-11-20T03:56:42;99901.47;;;1.69;76.17
61436;BME280;47304;47.456;19.160;2022-11-20T03:59:10;99899.08;;;1.70;76.28
61436;BME280;47304;47.456;19.160;2022-11-20T04:01:38;99896.30;;;1.69;76.15
61436;BME280;47304;47.456;19.160;2022-11-20T04:04:06;99893.92;;;1.64;76.05
61436;BME280;47304;47.456;19.160;2022-11-20T04:06:36;99890.40;;;1.56;75.98
61436;BME280;47304;47.456;19.160;2022-11-20T04:09:04;99902.96;;;1.48;76.10
61436;BME280;47304;47.456;19.160;2022-11-20T04:11:35;99898.29;;;1.41;76.46
61436;BME280;47304;47.456;19.160;2022-11-20T04:14:07;99892.83;;;1.38;76.64
61436;BME280;47304;47.456;19.160;2022-11-20T04:16:39;99888.39;;;1.34;76.66
61436;BME280;47304;47.456;19.160;2022-11-20T04:19:11;99882.21;;;1.29;76.42
61436;BME280;47304;47.456;19.160;2022-11-20T04:21:39;99873.27;;;1.25;76.56
61436;BME280;47304;47.456;19.160;2022-11-20T04:24:07;99866.41;;;1.26;76.79
61436;BME280;47304;47.456;19.160;2022-11-20T04:26:34;99869.94;;;1.28;76.75
61436;BME280;47304;47.456;19.160;2022-11-20T04:29:02;99872.03;;;1.29;76.78
61436;BME280;47304;47.456;19.160;2022-11-20T04:31:32;99872.90;;;1.30;76.62
61436;BME280;47304;47.456;19.160;2022-11-20T04:34:02;99874.03;;;1.27;76.61
61436;BME280;47304;47.456;19.160;2022-11-20T04:36:31;99871.97;;;1.21;76.39
61436;BME280;47304;47.456;19.160;2022-11-20T04:39:01;99883.17;;;1.15;76.37
61436;BME280;47304;47.456;19.160;2022-11-20T04:41:34;99886.88;;;1.11;76.45
61436;BME280;47304;47.456;19.160;2022-11-20T04:44:04;99889.14;;;1.12;76.52
61436;BME280;47304;47.456;19.160;2022-11-20T04:46:38;99889.52;;;1.14;76.41
61436;BME280;47304;47.456;19.160;2022-11-20T04:49:07;99886.65;;;1.15;76.63
61436;BME280;47304;47.456;19.160;2022-11-20T04:51:35;99871.07;;;1.20;76.58
61436;BME280;47304;47.456;19.160;2022-11-20T04:54:03;99859.45;;;1.24;76.46
61436;BME280;47304;47.456;19.160;2022-11-20T04:56:30;99858.62;;;1.25;76.29
61436;BME280;47304;47.456;19.160;2022-11-20T04:59:02;99856.20;;;1.24;76.18
61436;BME280;47304;47.456;19.160;2022-11-20T05:01:32;99851.94;;;1.27;76.51
61436;BME280;47304;47.456;19.160;2022-11-20T05:04:00;99853.41;;;1.30;76.40
61436;BME280;47304;47.456;19.160;2022-11-20T05:06:27;99853.83;;;1.32;76.35
61436;BME280;47304;47.456;19.160;2022-11-20T05:08:55;99853.21;;;1.35;76.43
61436;BME280;47304;47.456;19.160;2022-11-20T05:11:23;99856.71;;;1.36;76.62
61436;BME280;47304;47.456;19.160;2022-11-20T05:13:51;99869.96;;;1.35;76.57
61436;BME280;47304;47.456;19.160;2022-11-20T05:16:22;99872.75;;;1.36;76.40
61436;BME280;47304;47.456;19.160;2022-11-20T05:18:52;99858.89;;;1.34;76.52
61436;BME280;47304;47.456;19.160;2022-11-20T05:21:21;99852.11;;;1.32;76.69
61436;BME280;47304;47.456;19.160;2022-11-20T05:23:49;99849.06;;;1.29;76.66
61436;BME280;47304;47.456;19.160;2022-11-20T05:26:20;99842.61;;;1.26;76.87
61436;BME280;47304;47.456;19.160;2022-11-20T05:28:49;99832.59;;;1.26;76.86
61436;BME280;47304;47.456;19.160;2022-11-20T05:31:23;99824.27;;;1.25;77.08
61436;BME280;47304;47.456;19.160;2022-11-20T05:33:56;99825.98;;;1.25;77.01
61436;BME280;47304;47.456;19.160;2022-11-20T05:36:24;99822.38;;;1.19;77.02
61436;BME280;47304;47.456;19.160;2022-11-20T05:38:52;99811.52;;;1.13;77.14
61436;BME280;47304;47.456;19.160;2022-11-20T05:41:27;99811.44;;;1.10;77.24
61436;BME280;47304;47.456;19.160;2022-11-20T05:43:55;99824.36;;;1.10;77.25
61436;BME280;47304;47.456;19.160;2022-11-20T05:46:23;99835.56;;;1.09;77.37
61436;BME280;47304;47.456;19.160;2022-11-20T05:48:56;99838.64;;;1.08;77.26
61436;BME280;47304;47.456;19.160;2022-11-20T05:51:25;99841.89;;;1.07;77.27
61436;BME280;47304;47.456;19.160;2022-11-20T05:53:53;99838.76;;;1.06;76.92
61436;BME280;47304;47.456;19.160;2022-11-20T05:56:21;99839.63;;;1.06;77.10
61436;BME280;47304;47.456;19.160;2022-11-20T05:58:49;99839.35;;;1.09;77.22
61436;BME280;47304;47.456;19.160;2022-11-20T06:01:23;99844.73;;;1.10;77.08
61436;BME280;47304;47.456;19.160;2022-11-20T06:03:53;99849.52;;;1.08;76.96
61436;BME280;47304;47.456;19.160;2022-11-20T06:06:21;99855.80;;;1.11;77.19
61436;BME280;47304;47.456;19.160;2022-11-20T06:08:49;99854.07;;;1.11;76.78
61436;BME280;47304;47.456;19.160;2022-11-20T06:11:17;99847.66;;;1.10;76.74
61436;BME280;47304;47.456;19.160;2022-11-20T06:13:45;99848.44;;;1.13;77.02
61436;BME280;47304;47.456;19.160;2022-11-20T06:16:15;99859.34;;;1.14;76.79
61436;BME280;47304;47.456;19.160;2022-11-20T06:18:44;99860.59;;;1.16;76.77
61436;BME280;47304;47.456;19.160;2022-11-20T06:21:15;99842.51;;;1.17;76.89
61436;BME280;47304;47.456;19.160;2022-11-20T06:23:43;99842.75;;;1.19;76.89
61436;BME280;47304;47.456;19.160;2022-11-20T06:26:17;99852.66;;;1.21;76.81
61436;BME280;47304;47.456;19.160;2022-11-20T06:28:45;99856.46;;;1.22;76.65
61436;BME280;47304;47.456;19.160;2022-11-20T06:31:15;99854.42;;;1.23;76.77
61436;BME280;47304;47.456;19.160;2022-11-20T06:33:43;99868.34;;;1.27;76.77
61436;BME280;47304;47.456;19.160;2022-11-20T06:36:12;99876.33;;;1.28;76.62
61436;BME280;47304;47.456;19.160;2022-11-20T06:38:41;99877.31;;;1.27;76.42
61436;BME280;47304;47.456;19.160;2022-11-20T06:41:14;99884.34;;;1.25;76.29
61436;BME280;47304;47.456;19.160;2022-11-20T06:43:43;99890.40;;;1.26;76.54
61436;BME280;47304;47.456;19.160;2022-11-20T06:46:12;99898.73;;;1.28;76.66
61436;BME280;47304;47.456;19.160;2022-11-20T06:48:40;99905.61;;;1.32;76.63
61436;BME280;47304;47.456;19.160;2022-11-20T06:51:08;99907.17;;;1.38;76.72
61436;BME280;47304;47.456;19.160;2022-11-20T06:53:36;99911.33;;;1.45;76.62
61436;BME280;47304;47.456;19.160;2022-11-20T06:56:05;99910.31;;;1.52;76.56
61436;BME280;47304;47.456;19.160;2022-11-20T06:58:34;99904.19;;;1.55;76.30
61436;BME280;47304;47.456;19.160;2022-11-20T07:01:05;99888.22;;;1.58;76.29
61436;BME280;47304;47.456;19.160;2022-11-20T07:03:34;99882.43;;;1.62;76.05
61436;BME280;47304;47.456;19.160;2022-11-20T07:06:03;99880.87;;;1.67;76.31
61436;BME280;47304;47.456;19.160;2022-11-20T07:08:32;99885.84;;;1.72;76.11
61436;BME280;47304;47.456;19.160;2022-11-20T07:11:01;99882.38;;;1.78;76.06
61436;BME280;47304;47.456;19.160;2022-11-20T07:13:29;99875.64;;;1.84;75.96
61436;BME280;47304;47.456;19.160;2022-11-20T07:16:02;99876.40;;;1.87;75.54
61436;BME280;47304;47.456;19.160;2022-11-20T07:18:30;99878.70;;;1.90;75.66
61436;BME280;47304;47.456;19.160;2022-11-20T07:21:03;99882.39;;;1.92;75.61
61436;BME280;47304;47.456;19.160;2022-11-20T07:23:31;99886.95;;;1.94;75.29
61436;BME280;47304;47.456;19.160;2022-11-20T07:26:06;99888.66;;;1.94;75.02
61436;BME280;47304;47.456;19.160;2022-11-20T07:28:34;99890.06;;;1.95;75.30
61436;BME280;47304;47.456;19.160;2022-11-20T07:31:02;99895.01;;;1.98;75.48
61436;BME280;47304;47.456;19.160;2022-11-20T07:33:30;99904.48;;;2.03;75.77
61436;BME280;47304;47.456;19.160;2022-11-20T07:35:59;99918.12;;;2.10;75.86
61436;BME280;47304;47.456;19.160;2022-11-20T07:38:27;99918.73;;;2.14;75.77
61436;BME280;47304;47.456;19.160;2022-11-20T07:40:57;99919.23;;;2.13;75.65
61436;BME280;47304;47.456;19.160;2022-11-20T07:43:25;99918.42;;;2.09;75.87
61436;BME280;47304;47.456;19.160;2022-11-20T07:45:59;99919.76;;;2.06;76.17
61436;BME280;47304;47.456;19.160;2022-11-20T07:48:27;99920.42;;;2.06;76.41
61436;BME280;47304;47.456;19.160;2022-11-20T07:50:55;99921.84;;;2.07;76.55
61436;BME280;47304;47.456;19.160;2022-11-20T07:53:24;99923.77;;;2.08;76.65
61436;BME280;47304;47.456;19.160;2022-11-20T07:55:52;99922.18;;;2.07;76.83
61436;BME280;47304;47.456;19.160;2022-11-20T07:58:20;99925.34;;;2.08;77.26
61436;BME280;47304;47.456;19.160;2022-11-20T08:00:48;99921.96;;;2.11;77.31
61436;BME280;47304;47.456;19.160;2022-11-20T08:03:16;99910.45;;;2.13;77.41
61436;BME280;47304;47.456;19.160;2022-11-20T08:05:51;99898.58;;;2.16;77.56
61436;BME280;47304;47.456;19.160;2022-11-20T08:08:21;99897.64;;;2.20;77.77
61436;BME280;47304;47.456;19.160;2022-11-20T08:10:49;99897.33;;;2.21;77.68
61436;BME280;47304;47.456;19.160;2022-11-20T08:13:17;99906.09;;;2.26;78.01
61436;BME280;47304;47.456;19.160;2022-11-20T08:15:48;99914.23;;;2.34;78.14
61436;BME280;47304;47.456;19.160;2022-11-20T08:18:17;99917.24;;;2.43;78.02
61436;BME280;47304;47.456;19.160;2022-11-20T08:21:03;99916.27;;;2.53;78.18
61436;BME280;47304;47.456;19.160;2022-11-20T08:23:31;99905.00;;;2.58;77.98
61436;BME280;47304;47.456;19.160;2022-11-20T08:25:59;99905.84;;;2.65;77.89
61436;BME280;47304;47.456;19.160;2022-11-20T08:28:26;99903.40;;;2.71;77.64
61436;BME280;47304;47.456;19.160;2022-11-20T08:30:59;99896.61;;;2.76;77.46
61436;BME280;47304;47.456;19.160;2022-11-20T08:33:27;99891.73;;;2.83;77.16
61436;BME280;47304;47.456;19.160;2022-11-20T08:36:03;99889.77;;;2.87;77.26
61436;BME280;47304;47.456;19.160;2022-11-20T08:38:31;99898.62;;;2.88;77.18
61436;BME280;47304;47.456;19.160;2022-11-20T08:41:01;99906.48;;;2.92;77.32
61436;BME280;47304;47.456;19.160;2022-11-20T08:43:29;99901.25;;;2.97;77.21
61436;BME280;47304;47.456;19.160;2022-11-20T08:45:57;99906.43;;;3.05;77.45
61436;BME280;47304;47.456;19.160;2022-11-20T08:48:24;99906.23;;;3.11;77.17
61436;BME280;47304;47.456;19.160;2022-11-20T08:50:52;99897.23;;;3.20;76.78
61436;BME280;47304;47.456;19.160;2022-11-20T08:53:19;99891.73;;;3.30;76.49
61436;BME280;47304;47.456;19.160;2022-11-20T08:55:47;99893.45;;;3.37;76.05
61436;BME280;47304;47.456;19.160;2022-11-20T08:58:15;99899.14;;;3.44;75.72
61436;BME280;47304;47.456;19.160;2022-11-20T09:00:42;99897.75;;;3.52;75.56
61436;BME280;47304;47.456;19.160;2022-11-20T09:03:10;99905.98;;;3.56;75.42
61436;BME280;47304;47.456;19.160;2022-11-20T09:05:38;99917.24;;;3.57;74.86
61436;BME280;47304;47.456;19.160;2022-11-20T09:08:05;99923.39;;;3.52;74.90
61436;BME280;47304;47.456;19.160;2022-11-20T09:10:33;99922.98;;;3.50;74.74
61436;BME280;47304;47.456;19.160;2022-11-20T09:13:00;99916.95;;;3.51;75.02
61436;BME280;47304;47.456;19.160;2022-11-20T09:15:28;99916.67;;;3.54;74.61
61436;BME280;47304;47.456;19.160;2022-11-20T09:17:59;99922.16;;;3.52;74.36
61436;BME280;47304;47.456;19.160;2022-11-20T09:20:28;99925.67;;;3.46;74.24
61436;BME280;47304;47.456;19.160;2022-11-20T09:22:57;99933.77;;;3.43;74.42
61436;BME280;47304;47.456;19.160;2022-11-20T09:25:25;99936.01;;;3.43;74.18
61436;BME280;47304;47.456;19.160;2022-11-20T09:27:56;99935.63;;;3.42;73.93
61436;BME280;47304;47.456;19.160;2022-11-20T09:30:24;99932.12;;;3.39;74.34
61436;BME280;47304;47.456;19.160;2022-11-20T09:32:52;99922.98;;;3.42;74.71
61436;BME280;47304;47.456;19.160;2022-11-20T09:35:20;99920.09;;;3.44;74.53
61436;BME280;47304;47.456;19.160;2022-11-20T09:37:48;99917.37;;;3.47;74.48
61436;BME280;47304;47.456;19.160;2022-11-20T09:40:24;99915.72;;;3.50;74.66
61436;BME280;47304;47.456;19.160;2022-11-20T09:43:21;99921.20;;;3.57;74.34
61436;BME280;47304;47.456;19.160;2022-11-20T09:51:42;99900.76;;;3.64;74.02
61436;BME280;47304;47.456;19.160;2022-11-20T09:54:19;99900.59;;;3.65;74.26
61436;BME280;47304;47.456;19.160;2022-11-20T09:56:53;99890.06;;;3.67;74.52
61436;BME280;47304;47.456;19.160;2022-11-20T09:59:38;99892.55;;;3.70;74.26
61436;BME280;47304;47.456;19.160;2022-11-20T10:07:36;99895.92;;;4.01;74.67
61436;BME280;47304;47.456;19.160;2022-11-20T10:10:25;99895.13;;;4.14;74.57
61436;BME280;47304;47.456;19.160;2022-11-20T10:27:23;99854.10;;;4.61;72.73
61436;BME280;47304;47.456;19.160;2022-11-20T10:30:06;99852.73;;;4.74;72.77
61436;BME280;47304;47.456;19.160;2022-11-20T10:32:51;99853.73;;;4.95;72.48
61436;BME280;47304;47.456;19.160;2022-11-20T10:37:57;99850.73;;;5.44;69.51
61436;BME280;47304;47.456;19.160;2022-11-20T10:40:45;99849.31;;;5.72;69.82
61436;BME280;47304;47.456;19.160;2022-11-20T10:43:21;99855.27;;;5.93;69.92
61436;BME280;47304;47.456;19.160;2022-11-20T10:48:29;99858.45;;;6.32;68.78
61436;BME280;47304;47.456;19.160;2022-11-20T10:51:21;99856.26;;;6.40;68.35
61436;BME280;47304;47.456;19.160;2022-11-20T10:56:42;99852.72;;;6.80;66.99
61436;BME280;47304;47.456;19.160;2022-11-20T11:02:23;99849.69;;;6.97;65.78
61436;BME280;47304;47.456;19.160;2022-11-20T11:04:52;99861.63;;;6.83;66.06
61436;BME280;47304;47.456;19.160;2022-11-20T11:07:44;99868.71;;;6.77;65.94
61436;BME280;47304;47.456;19.160;2022-11-20T11:10:22;99877.90;;;6.72;66.38
61436;BME280;47304;47.456;19.160;2022-11-20T11:12:52;99879.27;;;6.67;66.25
61436;BME280;47304;47.456;19.160;2022-11-20T11:15:30;99880.61;;;6.61;66.42
61436;BME280;47304;47.456;19.160;2022-11-20T11:17:58;99884.00;;;6.51;66.61
61436;BME280;47304;47.456;19.160;2022-11-20T11:20:26;99884.26;;;6.40;66.39
61436;BME280;47304;47.456;19.160;2022-11-20T11:22:57;99878.76;;;6.27;66.48
61436;BME280;47304;47.456;19.160;2022-11-20T11:25:31;99876.36;;;6.14;66.89
61436;BME280;47304;47.456;19.160;2022-11-20T11:28:17;99864.66;;;6.08;67.63
61436;BME280;47304;47.456;19.160;2022-11-20T11:30:47;99858.17;;;6.04;67.49
61436;BME280;47304;47.456;19.160;2022-11-20T11:33:33;99862.30;;;6.00;67.64
61436;BME280;47304;47.456;19.160;2022-11-20T11:36:03;99856.36;;;5.98;67.88
61436;BME280;47304;47.456;19.160;2022-11-20T11:38:40;99860.09;;;6.03;68.35
61436;BME280;47304;47.456;19.160;2022-11-20T11:41:16;99854.77;;;6.10;68.54
61436;BME280;47304;47.456;19.160;2022-11-20T11:43:58;99848.75;;;6.17;67.87
61436;BME280;47304;47.456;19.160;2022-11-20T11:46:32;99853.13;;;6.21;67.82
61436;BME280;47304;47.456;19.160;2022-11-20T11:54:30;99833.39;;;6.32;67.96
61436;BME280;47304;47.456;19.160;2022-11-20T11:57:03;99828.60;;;6.43;68.02
61436;BME280;47304;47.456;19.160;2022-11-20T12:02:54;99830.51;;;6.65;67.10
61436;BME280;47304;47.456;19.160;2022-11-20T12:05:28;99840.82;;;6.71;66.73
61436;BME280;47304;47.456;19.160;2022-11-20T12:11:05;99835.29;;;6.75;66.52
61436;BME280;47304;47.456;19.160;2022-11-20T12:16:02;99817.55;;;6.80;66.38
61436;BME280;47304;47.456;19.160;2022-11-20T12:18:31;99813.36;;;6.79;66.24
61436;BME280;47304;47.456;19.160;2022-11-20T12:23:58;99815.77;;;6.75;65.75
61436;BME280;47304;47.456;19.160;2022-11-20T12:43:19;99828.82;;;6.27;66.63
61436;BME280;47304;47.456;19.160;2022-11-20T12:57:03;99842.90;;;6.05;67.06
61436;BME280;47304;47.456;19.160;2022-11-20T13:02:27;99845.43;;;5.99;67.19
61436;BME280;47304;47.456;19.160;2022-11-20T13:05:21;99849.37;;;5.95;67.40
61436;BME280;47304;47.456;19.160;2022-11-20T13:07:54;99846.02;;;5.91;67.46
61436;BME280;47304;47.456;19.160;2022-11-20T13:12:58;99847.84;;;5.82;67.67
61436;BME280;47304;47.456;19.160;2022-11-20T13:15:53;99843.14;;;5.82;68.09
61436;BME280;47304;47.456;19.160;2022-11-20T13:18:24;99841.92;;;5.81;67.91
61436;BME280;47304;47.456;19.160;2022-11-20T13:20:52;99833.23;;;5.80;68.23
61436;BME280;47304;47.456;19.160;2022-11-20T13:23:24;99834.27;;;5.81;68.32
61436;BME280;47304;47.456;19.160;2022-11-20T13:26:25;99834.98;;;5.83;68.12
61436;BME280;47304;47.456;19.160;2022-11-20T13:29:09;99837.24;;;5.82;68.05
61436;BME280;47304;47.456;19.160;2022-11-20T13:31:42;99834.66;;;5.84;68.38
61436;BME280;47304;47.456;19.160;2022-11-20T13:34:23;99831.54;;;5.85;68.36
61436;BME280;47304;47.456;19.160;2022-11-20T13:36:55;99818.54;;;5.89;68.54
61436;BME280;47304;47.456;19.160;2022-11-20T13:39:28;99813.17;;;5.92;68.52
61436;BME280;47304;47.456;19.160;2022-11-20T13:42:26;99811.66;;;5.96;68.71
61436;BME280;47304;47.456;19.160;2022-11-20T13:44:55;99805.63;;;5.99;68.56
61436;BME280;47304;47.456;19.160;2022-11-20T13:47:28;99806.51;;;6.01;68.51
61436;BME280;47304;47.456;19.160;2022-11-20T13:49:57;99801.13;;;6.01;68.06
61436;BME280;47304;47.456;19.160;2022-11-20T13:55:32;99797.54;;;5.92;67.99
61436;BME280;47304;47.456;19.160;2022-11-20T14:00:51;99792.89;;;5.79;68.24
61436;BME280;47304;47.456;19.160;2022-11-20T14:03:23;99794.54;;;5.71;68.57
61436;BME280;47304;47.456;19.160;2022-11-20T14:06:25;99793.23;;;5.63;68.69
61436;BME280;47304;47.456;19.160;2022-11-20T14:08:54;99794.94;;;5.58;69.04
61436;BME280;47304;47.456;19.160;2022-11-20T14:11:26;99793.85;;;5.54;69.12
61436;BME280;47304;47.456;19.160;2022-11-20T14:14:05;99792.09;;;5.51;69.29
61436;BME280;47304;47.456;19.160;2022-11-20T14:16:40;99792.80;;;5.53;69.55
61436;BME280;47304;47.456;19.160;2022-11-20T14:21:49;99798.92;;;5.58;70.06
61436;BME280;47304;47.456;19.160;2022-11-20T14:24:24;99800.67;;;5.59;70.35
61436;BME280;47304;47.456;19.160;2022-11-20T14:26:52;99811.11;;;5.59;70.54
61436;BME280;47304;47.456;19.160;2022-11-20T14:29:33;99813.18;;;5.58;70.44
61436;BME280;47304;47.456;19.160;2022-11-20T14:32:03;99814.55;;;5.57;69.99
61436;BME280;47304;47.456;19.160;2022-11-20T14:34:37;99814.13;;;5.50;69.90
61436;BME280;47304;47.456;19.160;2022-11-20T14:37:09;99814.77;;;5.45;69.91
61436;BME280;47304;47.456;19.160;2022-11-20T14:39:49;99818.52;;;5.39;70.42
61436;BME280;47304;47.456;19.160;2022-11-20T14:42:21;99817.13;;;5.39;70.63
61436;BME280;47304;47.456;19.160;2022-11-20T14:44:49;99823.02;;;5.37;70.71
61436;BME280;47304;47.456;19.160;2022-11-20T14:47:24;99820.94;;;5.37;71.17
61436;BME280;47304;47.456;19.160;2022-11-20T14:49:53;99823.39;;;5.37;71.32
61436;BME280;47304;47.456;19.160;2022-11-20T14:52:24;99824.76;;;5.36;71.08
61436;BME280;47304;47.456;19.160;2022-11-20T14:54:53;99823.98;;;5.30;70.73
61436;BME280;47304;47.456;19.160;2022-11-20T14:57:32;99828.59;;;5.24;70.83
61436;BME280;47304;47.456;19.160;2022-11-20T15:02:45;99839.73;;;5.12;70.99